createdAt,value
2018-02-01T00:00:41.958Z,98933.79
2018-02-01T00:03:17.017Z,98938.66
2018-02-01T00:05:49.521Z,98941.70
2018-02-01T00:08:22.002Z,98945.77
2018-02-01T00:10:54.499Z,98920.96
2018-02-01T00:13:26.968Z,98925.66
2018-02-01T00:15:59.468Z,98926.59
2018-02-01T00:18:31.947Z,98925.92
2018-02-01T00:21:04.453Z,98932.11
2018-02-01T00:23:36.922Z,98933.92
2018-02-01T00:26:09.411Z,98927.81
2018-02-01T00:28:41.891Z,98920.35
2018-02-01T00:31:14.401Z,98928.67
2018-02-01T00:33:46.903Z,98921.61
2018-02-01T00:36:19.492Z,98924.51
2018-02-01T00:38:51.970Z,98930.96
2018-02-01T00:41:24.467Z,98920.61
2018-02-01T00:43:57.804Z,98910.83
2018-02-01T00:46:30.310Z,98901.71
2018-02-01T00:49:02.819Z,98911.41
2018-02-01T00:51:35.313Z,98911.93
2018-02-01T00:54:07.805Z,98921.91
2018-02-01T00:56:40.306Z,98921.08
2018-02-01T00:59:12.797Z,98919.78
2018-02-01T01:01:45.290Z,98924.88
2018-02-01T01:04:17.785Z,98917.80
2018-02-01T01:06:50.309Z,98916.53
2018-02-01T01:09:22.784Z,98919.80
2018-02-01T01:11:55.288Z,98915.18
2018-02-01T01:14:27.830Z,98921.30
2018-02-01T01:17:00.338Z,98921.91
2018-02-01T01:19:32.806Z,98929.28
2018-02-01T01:22:05.299Z,98931.02
2018-02-01T01:24:37.781Z,98931.73
2018-02-01T01:27:10.325Z,98929.20
2018-02-01T01:29:42.818Z,98918.90
2018-02-01T01:32:15.315Z,98922.16
2018-02-01T01:34:47.783Z,98924.42
2018-02-01T01:37:20.304Z,98929.05
2018-02-01T01:39:52.782Z,98922.48
2018-02-01T01:42:25.415Z,98919.41
2018-02-01T01:44:57.890Z,98922.17
2018-02-01T01:47:30.395Z,98930.03
2018-02-01T01:50:02.888Z,98930.31
2018-02-01T01:52:35.401Z,98923.58
2018-02-01T01:55:07.905Z,98925.52
2018-02-01T01:57:40.423Z,98928.31
2018-02-01T02:00:12.910Z,98918.93
2018-02-01T02:02:45.485Z,98914.28
2018-02-01T02:05:17.964Z,98912.84
2018-02-01T02:07:50.455Z,98912.50
2018-02-01T02:10:22.978Z,98906.86
2018-02-01T02:12:57.611Z,98902.30
2018-02-01T02:15:30.087Z,98902.32
2018-02-01T02:18:02.623Z,98901.39
2018-02-01T02:20:35.107Z,98898.06
2018-02-01T02:23:07.644Z,98897.23
2018-02-01T02:25:40.133Z,98899.52
2018-02-01T02:28:13.134Z,98907.87
2018-02-01T02:30:45.618Z,98896.31
2018-02-01T02:33:18.135Z,98890.03
2018-02-01T02:35:50.620Z,98888.03
2018-02-01T02:38:23.117Z,98889.59
2018-02-01T02:40:56.680Z,98892.24
2018-02-01T02:43:29.215Z,98894.43
2018-02-01T02:46:01.698Z,98889.02
2018-02-01T02:48:34.248Z,98891.48
2018-02-01T02:51:06.732Z,98894.97
2018-02-01T02:53:39.232Z,98893.55
2018-02-01T02:56:11.718Z,98886.05
2018-02-01T02:58:44.223Z,98891.20
2018-02-01T03:01:16.704Z,98892.00
2018-02-01T03:03:49.223Z,98886.43
2018-02-01T03:06:21.788Z,98889.45
2018-02-01T03:08:54.322Z,98888.78
2018-02-01T03:11:27.964Z,98889.27
2018-02-01T03:14:00.471Z,98894.40
2018-02-01T03:16:32.979Z,98892.98
2018-02-01T03:19:05.462Z,98895.13
2018-02-01T03:21:37.965Z,98892.21
2018-02-01T03:24:10.453Z,98895.25
2018-02-01T03:26:42.971Z,98893.94
2018-02-01T03:29:15.439Z,98896.40
2018-02-01T03:31:47.942Z,98895.13
2018-02-01T03:34:20.425Z,98891.02
2018-02-01T03:36:52.928Z,98889.13
2018-02-01T03:39:27.524Z,98900.45
2018-02-01T03:42:00.245Z,98898.42
2018-02-01T03:44:32.741Z,98901.37
2018-02-01T03:47:05.241Z,98906.08
2018-02-01T03:49:37.735Z,98906.62
2018-02-01T03:52:10.237Z,98905.53
2018-02-01T03:54:43.671Z,98905.69
2018-02-01T03:57:16.296Z,98904.37
2018-02-01T03:59:48.782Z,98910.31
2018-02-01T04:02:21.287Z,98906.45
2018-02-01T04:04:53.786Z,98903.64
2018-02-01T04:07:26.293Z,98900.59
2018-02-01T04:09:58.772Z,98894.52
2018-02-01T04:12:31.340Z,98892.26
2018-02-01T04:15:03.858Z,98903.86
2018-02-01T04:17:36.377Z,98901.20
2018-02-01T04:20:08.862Z,98902.59
2018-02-01T04:22:41.425Z,98898.66
2018-02-01T04:25:13.908Z,98888.84
2018-02-01T04:27:46.425Z,98904.95
2018-02-01T04:30:18.903Z,98900.66
2018-02-01T04:32:52.275Z,98903.94
2018-02-01T04:35:24.756Z,98908.50
2018-02-01T04:37:58.153Z,98908.06
2018-02-01T04:40:30.645Z,98908.11
2018-02-01T04:43:03.505Z,98910.97
2018-02-01T04:45:35.990Z,98906.59
2018-02-01T04:48:08.491Z,98906.91
2018-02-01T04:50:40.974Z,98899.97
2018-02-01T04:53:13.497Z,98906.70
2018-02-01T04:55:45.985Z,98899.98
2018-02-01T04:58:18.515Z,98908.12
2018-02-01T05:00:50.995Z,98913.86
2018-02-01T05:03:23.508Z,98915.69
2018-02-01T05:05:58.459Z,98908.52
2018-02-01T05:08:31.001Z,98916.14
2018-02-01T05:11:03.503Z,98910.14
2018-02-01T05:13:36.010Z,98921.94
2018-02-01T05:16:08.515Z,98930.47
2018-02-01T05:18:41.032Z,98922.88
2018-02-01T05:21:13.535Z,98936.42
2018-02-01T05:23:46.050Z,98929.97
2018-02-01T05:26:18.532Z,98928.83
2018-02-01T05:28:51.043Z,98928.04
2018-02-01T05:31:23.529Z,98929.94
2018-02-01T05:33:58.539Z,98920.78
2018-02-01T05:36:31.023Z,98924.24
2018-02-01T05:39:03.524Z,98923.08
2018-02-01T05:41:36.020Z,98923.62
2018-02-01T05:44:08.534Z,98919.08
2018-02-01T05:46:41.010Z,98926.60
2018-02-01T05:49:13.518Z,98921.45
2018-02-01T05:51:46.123Z,98919.27
2018-02-01T05:54:18.632Z,98921.83
2018-02-01T05:56:51.125Z,98925.47
2018-02-01T05:59:23.632Z,98925.30
2018-02-01T06:01:57.063Z,98921.34
2018-02-01T06:04:29.564Z,98925.31
2018-02-01T06:07:02.055Z,98921.67
2018-02-01T06:09:34.574Z,98926.27
2018-02-01T06:12:07.068Z,98928.58
2018-02-01T06:14:39.562Z,98928.02
2018-02-01T06:17:12.078Z,98928.88
2018-02-01T06:19:44.588Z,98924.23
2018-02-01T06:22:18.240Z,98916.66
2018-02-01T06:24:50.768Z,98915.29
2018-02-01T06:27:23.250Z,98918.75
2018-02-01T06:29:55.907Z,98918.05
2018-02-01T06:32:28.395Z,98919.37
2018-02-01T06:35:00.911Z,98916.28
2018-02-01T06:37:33.474Z,98915.31
2018-02-01T06:40:05.962Z,98914.68
2018-02-01T06:42:38.622Z,98911.15
2018-02-01T06:45:11.103Z,98916.59
2018-02-01T06:47:43.625Z,98909.08
2018-02-01T06:50:16.120Z,98907.56
2018-02-01T06:52:48.646Z,98911.94
2018-02-01T06:55:21.453Z,98914.91
2018-02-01T06:57:54.036Z,98916.66
2018-02-01T07:00:27.422Z,98916.25
2018-02-01T07:02:59.944Z,98928.56
2018-02-01T07:05:32.508Z,98924.59
2018-02-01T07:08:05.031Z,98919.14
2018-02-01T07:10:37.538Z,98927.14
2018-02-01T07:13:10.054Z,98926.41
2018-02-01T07:15:42.540Z,98930.77
2018-02-01T07:18:15.053Z,98940.78
2018-02-01T07:20:47.558Z,98942.32
2018-02-01T07:23:20.064Z,98939.42
2018-02-01T07:25:52.551Z,98950.05
2018-02-01T07:28:26.669Z,98947.88
2018-02-01T07:30:59.160Z,98955.28
2018-02-01T07:33:31.670Z,98950.69
2018-02-01T07:36:04.161Z,98947.08
2018-02-01T07:38:36.725Z,98950.27
2018-02-01T07:41:09.216Z,98952.34
2018-02-01T07:43:41.729Z,98949.43
2018-02-01T07:46:14.726Z,98959.05
2018-02-01T07:48:47.247Z,98955.85
2018-02-01T07:51:19.726Z,98947.49
2018-02-01T07:53:52.238Z,98956.27
2018-02-01T07:56:24.741Z,98947.58
2018-02-01T07:58:58.451Z,98955.47
2018-02-01T08:01:30.938Z,98960.86
2018-02-01T08:04:03.443Z,98959.63
2018-02-01T08:06:35.936Z,98965.03
2018-02-01T08:09:08.441Z,98963.07
2018-02-01T08:11:40.924Z,98968.92
2018-02-01T08:14:13.467Z,98964.23
2018-02-01T08:16:46.032Z,98965.80
2018-02-01T08:19:19.092Z,98963.72
2018-02-01T08:21:51.581Z,98961.84
2018-02-01T08:24:24.096Z,98961.19
2018-02-01T08:26:57.551Z,98955.97
2018-02-01T08:29:30.140Z,98960.22
2018-02-01T08:32:02.663Z,98956.02
2018-02-01T08:34:35.296Z,98953.40
2018-02-01T08:37:07.784Z,98957.03
2018-02-01T08:39:40.294Z,98954.52
2018-02-01T08:42:12.782Z,98950.33
2018-02-01T08:44:45.399Z,98957.33
2018-02-01T08:47:17.881Z,98953.01
2018-02-01T08:49:50.391Z,98962.54
2018-02-01T08:52:22.887Z,98956.44
2018-02-01T08:54:55.429Z,98960.06
2018-02-01T08:57:27.957Z,98969.23
2018-02-01T09:00:00.471Z,98969.99
2018-02-01T09:02:32.983Z,98976.80
2018-02-01T09:05:05.579Z,98986.91
2018-02-01T09:07:38.082Z,98977.63
2018-02-01T09:10:10.624Z,98985.02
2018-02-01T09:12:43.133Z,98985.19
2018-02-01T09:15:15.749Z,98987.22
2018-02-01T09:17:48.252Z,98999.92
2018-02-01T09:20:20.775Z,98994.83
2018-02-01T09:22:54.071Z,99004.16
2018-02-01T09:25:26.589Z,99007.00
2018-02-01T09:27:59.088Z,99014.07
2018-02-01T09:30:31.604Z,99024.07
2018-02-01T09:33:04.103Z,99015.41
2018-02-01T09:35:36.634Z,99020.02
2018-02-01T09:38:09.132Z,99014.66
2018-02-01T09:40:41.645Z,99010.20
2018-02-01T09:43:14.122Z,99008.92
2018-02-01T09:45:46.665Z,99006.02
2018-02-01T09:48:19.175Z,99009.58
2018-02-01T09:50:51.683Z,99011.79
2018-02-01T09:53:24.186Z,99006.98
2018-02-01T09:55:57.500Z,99014.06
2018-02-01T09:58:30.028Z,99016.66
2018-02-01T10:01:02.539Z,99012.82
2018-02-01T10:03:35.060Z,99014.45
2018-02-01T10:06:07.560Z,99014.53
2018-02-01T10:08:40.096Z,99025.36
2018-02-01T10:11:12.590Z,99018.83
2018-02-01T10:13:45.131Z,99014.72
2018-02-01T10:16:17.677Z,99019.88
2018-02-01T10:18:50.238Z,99019.72
2018-02-01T10:21:22.714Z,99031.16
2018-02-01T10:23:55.482Z,99019.13
2018-02-01T10:26:27.975Z,99032.87
2018-02-01T10:29:00.752Z,99029.21
2018-02-01T10:31:33.248Z,99027.34
2018-02-01T10:34:06.773Z,99025.42
2018-02-01T10:36:39.706Z,99035.22
2018-02-01T10:39:12.217Z,99032.17
2018-02-01T10:41:44.741Z,99032.75
2018-02-01T10:44:18.515Z,99034.89
2018-02-01T10:46:51.193Z,99036.88
2018-02-01T10:49:23.814Z,99039.10
2018-02-01T10:51:57.735Z,99033.82
2018-02-01T10:54:30.275Z,99032.41
2018-02-01T10:57:02.812Z,99037.55
2018-02-01T10:59:35.335Z,99036.53
2018-02-01T11:02:07.851Z,99040.02
2018-02-01T11:04:40.373Z,99039.63
2018-02-01T11:07:12.860Z,99039.34
2018-02-01T11:09:45.375Z,99037.42
2018-02-01T11:12:17.865Z,99030.88
2018-02-01T11:14:50.389Z,99032.50
2018-02-01T11:17:22.913Z,99037.12
2018-02-01T11:19:56.417Z,99035.80
2018-02-01T11:22:28.909Z,99037.71
2018-02-01T11:25:01.509Z,99041.23
2018-02-01T11:27:34.075Z,99027.75
2018-02-01T11:30:06.584Z,99017.30
2018-02-01T11:32:39.082Z,99018.64
2018-02-01T11:35:11.610Z,99028.21
2018-02-01T11:37:44.119Z,99015.17
2018-02-01T11:40:16.629Z,99023.47
2018-02-01T11:42:49.183Z,99017.63
2018-02-01T11:45:21.691Z,99023.53
2018-02-01T11:47:54.229Z,99026.52
2018-02-01T11:50:27.254Z,99027.22
2018-02-01T11:52:59.740Z,99025.08
2018-02-01T11:55:32.272Z,99029.55
2018-02-01T11:58:04.756Z,99021.23
2018-02-01T12:00:37.276Z,99023.36
2018-02-01T12:03:09.785Z,99027.66
2018-02-01T12:05:42.301Z,99026.69
2018-02-01T12:08:14.791Z,99020.81
2018-02-01T12:10:47.294Z,99006.58
2018-02-01T12:13:19.788Z,99018.64
2018-02-01T12:15:52.291Z,99018.70
2018-02-01T12:18:24.780Z,99017.95
2018-02-01T12:20:58.011Z,99015.69
2018-02-01T12:23:30.507Z,99010.73
2018-02-01T12:26:03.025Z,99010.72
2018-02-01T12:28:35.512Z,98997.30
2018-02-01T12:31:08.046Z,99009.31
2018-02-01T12:33:40.539Z,99008.02
2018-02-01T12:36:13.045Z,99002.09
2018-02-01T12:38:45.532Z,99008.27
2018-02-01T12:41:18.046Z,99009.23
2018-02-01T12:43:50.536Z,99005.73
2018-02-01T12:46:23.035Z,98993.74
2018-02-01T12:48:57.024Z,98995.28
2018-02-01T12:51:29.540Z,98995.31
2018-02-01T12:54:02.031Z,99006.50
2018-02-01T12:56:35.490Z,98995.59
2018-02-01T12:59:07.982Z,98991.45
2018-02-01T13:01:40.537Z,98991.06
2018-02-01T13:04:13.047Z,98994.59
2018-02-01T13:06:45.562Z,98993.91
2018-02-01T13:09:18.052Z,98986.36
2018-02-01T13:11:50.637Z,98995.12
2018-02-01T13:14:23.172Z,98992.33
2018-02-01T13:16:55.701Z,98983.63
2018-02-01T13:19:28.863Z,98989.52
2018-02-01T13:22:01.437Z,98988.99
2018-02-01T13:24:35.033Z,98993.19
2018-02-01T13:27:07.651Z,98993.52
2018-02-01T13:29:40.176Z,98993.48
2018-02-01T13:32:12.775Z,98986.50
2018-02-01T13:34:45.349Z,98987.63
2018-02-01T13:37:17.928Z,98973.48
2018-02-01T13:39:50.420Z,98975.08
2018-02-01T13:42:23.004Z,98975.70
2018-02-01T13:44:55.530Z,98971.05
2018-02-01T13:47:28.426Z,98970.17
2018-02-01T13:50:00.927Z,98960.35
2018-02-01T13:52:33.442Z,98958.11
2018-02-01T15:20:08.034Z,99024.72
2018-02-01T15:22:41.399Z,99022.68
2018-02-01T15:25:13.904Z,99016.67
2018-02-01T15:27:46.411Z,99024.25
2018-02-01T15:30:18.907Z,99020.89
2018-02-01T15:32:51.434Z,99013.04
2018-02-01T15:35:23.925Z,99014.19
2018-02-01T15:37:57.096Z,99011.89
2018-02-01T15:40:29.610Z,99013.55
2018-02-01T15:43:02.134Z,99025.13
2018-02-01T15:45:34.647Z,99022.94
2018-02-01T15:48:07.177Z,99019.04
2018-02-01T15:50:39.684Z,99019.73
2018-02-01T15:53:12.207Z,99022.11
2018-02-01T15:55:44.739Z,99025.47
2018-02-01T15:58:17.240Z,99033.53
2018-02-01T16:00:49.791Z,99033.30
2018-02-01T16:03:22.298Z,99032.47
2018-02-01T16:05:54.815Z,99030.69
2018-02-01T16:08:27.326Z,99029.58
2018-02-01T16:10:59.836Z,99026.59
2018-02-01T16:13:32.331Z,99018.97
2018-02-01T16:16:04.866Z,99021.11
2018-02-01T16:18:37.378Z,99022.94
2018-02-01T16:21:10.303Z,99025.89
2018-02-01T16:23:42.795Z,99027.34
2018-02-01T16:26:15.321Z,99025.16
2018-02-01T16:28:47.847Z,99035.55
2018-02-01T16:31:20.382Z,99032.39
2018-02-01T16:33:52.880Z,99036.44
2018-02-01T16:36:25.405Z,99032.08
2018-02-01T16:38:58.737Z,99035.88
2018-02-01T16:41:31.279Z,99030.72
2018-02-01T16:44:03.775Z,99019.49
2018-02-01T16:46:36.287Z,99029.55
2018-02-01T16:49:08.789Z,99029.79
2018-02-01T16:51:41.343Z,99023.06
2018-02-01T16:54:13.849Z,99022.79
2018-02-01T16:56:46.378Z,99028.31
2018-02-01T16:59:18.878Z,99032.09
2018-02-01T17:01:51.413Z,99031.27
2018-02-01T17:04:23.923Z,99033.48
2018-02-01T17:06:57.036Z,99035.38
2018-02-01T17:09:29.534Z,99034.01
2018-02-01T17:12:02.060Z,99036.23
2018-02-01T17:14:34.548Z,99035.72
2018-02-01T17:17:07.113Z,99038.95
2018-02-01T17:19:39.616Z,99032.64
2018-02-01T17:22:12.171Z,99037.77
2018-02-01T17:24:44.647Z,99040.98
2018-02-01T17:27:17.172Z,99034.01
2018-02-01T17:29:49.663Z,99041.78
2018-02-01T17:32:22.188Z,99047.92
2018-02-01T17:34:54.686Z,99041.56
2018-02-01T17:37:27.218Z,99053.21
2018-02-01T17:39:59.732Z,99052.00
2018-02-01T17:42:32.255Z,99053.44
2018-02-01T17:45:04.752Z,99060.16
2018-02-01T17:47:37.271Z,99062.45
2018-02-01T17:50:16.152Z,99060.12
2018-02-01T17:52:48.723Z,99063.47
2018-02-01T17:55:21.245Z,99061.56
2018-02-01T17:57:53.769Z,99063.64
2018-02-01T18:00:26.271Z,99057.98
2018-02-01T18:02:58.801Z,99071.75
2018-02-01T18:05:31.324Z,99073.41
2018-02-01T18:08:03.850Z,99070.51
2018-02-01T18:10:36.357Z,99070.98
2018-02-01T18:13:08.885Z,99067.58
2018-02-01T18:15:41.574Z,99076.23
2018-02-01T18:18:14.124Z,99077.56
2018-02-01T18:20:46.636Z,99080.25
2018-02-01T18:23:19.157Z,99086.41
2018-02-01T18:25:51.661Z,99082.84
2018-02-01T18:28:24.252Z,99094.30
2018-02-01T18:30:56.821Z,99085.03
2018-02-01T18:33:29.329Z,99086.22
2018-02-01T18:36:01.902Z,99085.79
2018-02-01T18:38:34.482Z,99092.65
2018-02-01T18:41:06.991Z,99089.39
2018-02-01T18:43:39.554Z,99085.89
2018-02-01T18:46:12.060Z,99090.11
2018-02-01T18:48:44.571Z,99092.24
2018-02-01T18:51:17.276Z,99095.66
2018-02-01T18:53:49.799Z,99085.16
2018-02-01T18:56:23.127Z,99091.39
2018-02-01T18:58:59.378Z,99095.72
2018-02-01T19:01:31.892Z,99094.81
2018-02-01T19:04:04.421Z,99097.81
2018-02-01T19:06:36.925Z,99094.26
2018-02-01T19:09:09.454Z,99093.30
2018-02-01T19:11:41.939Z,99089.70
2018-02-01T19:14:14.454Z,99079.33
2018-02-01T19:16:46.983Z,99078.13
2018-02-01T19:19:19.503Z,99084.08
2018-02-01T19:21:52.032Z,99085.23
2018-02-01T19:24:24.556Z,99084.15
2018-02-01T19:26:57.988Z,99081.59
2018-02-01T19:29:30.551Z,99078.59
2018-02-01T19:32:03.061Z,99089.56
2018-02-01T19:34:35.554Z,99081.77
2018-02-01T19:37:08.094Z,99078.61
2018-02-01T19:39:43.598Z,99083.40
2018-02-01T19:42:16.194Z,99087.95
2018-02-01T19:44:48.695Z,99084.41
2018-02-01T19:47:21.222Z,99080.11
2018-02-01T19:49:53.727Z,99089.23
2018-02-01T19:52:28.346Z,99085.47
2018-02-01T19:55:00.854Z,99079.74
2018-02-01T19:57:33.387Z,99082.61
2018-02-01T20:00:05.888Z,99084.00
2018-02-01T20:02:38.395Z,99085.76
2018-02-01T20:05:10.891Z,99092.21
2018-02-01T20:07:43.418Z,99078.86
2018-02-01T20:10:15.929Z,99085.27
2018-02-01T20:12:48.444Z,99084.96
2018-02-01T20:15:20.970Z,99079.88
2018-02-01T20:17:53.626Z,99084.79
2018-02-01T20:20:26.774Z,99079.65
2018-02-01T20:22:59.278Z,99067.91
2018-02-01T20:25:31.773Z,99073.59
2018-02-01T20:28:04.294Z,99069.26
2018-02-01T20:30:37.126Z,99074.19
2018-02-01T20:33:10.091Z,99072.92
2018-02-01T20:35:42.741Z,99077.14
2018-02-01T20:38:16.172Z,99077.45
2018-02-01T20:40:48.676Z,99075.33
2018-02-01T20:43:21.186Z,99078.48
2018-02-01T20:45:53.693Z,99077.16
2018-02-01T20:48:26.284Z,99079.03
2018-02-01T20:50:58.878Z,99089.26
2018-02-01T20:53:31.436Z,99088.68
2018-02-01T20:56:03.960Z,99085.92
2018-02-01T20:58:36.477Z,99082.12
2018-02-01T21:01:09.011Z,99085.70
2018-02-01T21:03:41.538Z,99081.56
2018-02-01T21:06:14.045Z,99092.33
2018-02-01T21:08:46.592Z,99086.94
2018-02-01T21:11:19.140Z,99097.92
2018-02-01T21:13:51.679Z,99098.53
2018-02-01T21:16:24.175Z,99104.23
2018-02-01T21:18:56.694Z,99105.83
2018-02-01T21:21:29.193Z,99099.70
2018-02-01T21:24:02.916Z,99098.98
2018-02-01T21:26:35.486Z,99100.23
2018-02-01T21:29:08.024Z,99098.12
2018-02-01T21:31:40.527Z,99102.73
2018-02-01T21:34:13.046Z,99105.25
2018-02-01T21:36:45.556Z,99096.02
2018-02-01T21:39:18.073Z,99091.40
2018-02-01T21:41:50.589Z,99100.61
2018-02-01T21:44:23.093Z,99099.00
2018-02-01T21:46:55.751Z,99101.80
2018-02-01T21:49:28.257Z,99109.63
2018-02-01T21:52:00.758Z,99101.15
2018-02-01T21:54:33.278Z,99104.23
2018-02-01T21:57:05.778Z,99108.93
2018-02-01T21:59:38.315Z,99117.19
2018-02-01T22:02:10.813Z,99106.37
2018-02-01T22:04:43.349Z,99103.97
2018-02-01T22:07:15.848Z,99103.23
2018-02-01T22:09:48.375Z,99100.55
2018-02-01T22:12:20.878Z,99106.02
2018-02-01T22:14:53.392Z,99100.98
2018-02-01T22:17:25.883Z,99104.84
2018-02-01T22:19:58.406Z,99108.91
2018-02-01T22:22:37.811Z,99115.88
2018-02-01T22:25:10.340Z,99117.16
2018-02-01T22:27:42.835Z,99114.59
2018-02-01T22:30:15.348Z,99122.81
2018-02-01T22:32:47.850Z,99110.70
2018-02-01T22:35:20.375Z,99118.84
2018-02-01T22:37:52.934Z,99114.38
2018-02-01T22:40:25.739Z,99113.48
2018-02-01T22:42:58.223Z,99111.15
2018-02-01T22:45:30.738Z,99113.24
2018-02-01T22:48:03.256Z,99111.80
2018-02-01T22:50:35.794Z,99115.02
2018-02-01T22:53:08.305Z,99113.19
2018-02-01T22:55:40.813Z,99119.25
2018-02-01T22:58:13.319Z,99120.97
2018-02-01T23:00:45.823Z,99110.45
2018-02-01T23:03:18.333Z,99116.95
2018-02-01T23:05:50.829Z,99127.31
2018-02-01T23:08:23.357Z,99124.26
2018-02-01T23:10:55.854Z,99120.91
2018-02-01T23:13:28.371Z,99120.87
2018-02-01T23:16:00.878Z,99121.11
2018-02-01T23:18:33.405Z,99131.03
2018-02-01T23:21:05.894Z,99124.34
2018-02-01T23:23:38.416Z,99124.47
2018-02-01T23:26:10.938Z,99121.98
2018-02-01T23:28:43.466Z,99123.20
2018-02-01T23:31:16.203Z,99122.55
2018-02-01T23:33:48.730Z,99120.91
2018-02-01T23:36:21.243Z,99123.35
2018-02-01T23:38:53.769Z,99127.69
2018-02-01T23:41:26.376Z,99127.96
2018-02-01T23:43:58.892Z,99125.75
2018-02-01T23:46:31.393Z,99127.98
2018-02-01T23:49:03.896Z,99124.61
2018-02-01T23:51:36.385Z,99122.02
2018-02-01T23:54:08.910Z,99116.93
2018-02-01T23:56:41.403Z,99127.13
2018-02-01T23:59:13.928Z,99119.20
